createdAt,value
2022-08-27T00:00:31.959Z,36.30
2022-08-27T00:03:03.661Z,36.48
2022-08-27T00:05:36.862Z,36.05
2022-08-27T00:08:08.898Z,36.02
2022-08-27T00:10:39.361Z,36.05
2022-08-27T00:13:09.126Z,36.11
2022-08-27T00:15:39.707Z,36.17
2022-08-27T00:18:10.122Z,36.16
2022-08-27T00:20:40.421Z,36.17
2022-08-27T00:23:11.420Z,36.83
2022-08-27T00:25:42.034Z,36.92
2022-08-27T00:28:12.893Z,37.01
2022-08-27T00:30:47.794Z,37.43
2022-08-27T00:33:21.483Z,37.63
2022-08-27T00:35:52.838Z,37.40
2022-08-27T00:38:22.161Z,37.80
2022-08-27T00:40:53.224Z,37.65
2022-08-27T00:43:28.789Z,37.53
2022-08-27T00:46:08.076Z,37.42
2022-08-27T00:48:38.329Z,37.41
2022-08-27T00:51:08.689Z,37.54
2022-08-27T00:53:39.304Z,37.43
2022-08-27T00:56:17.564Z,37.36
2022-08-27T00:58:53.966Z,37.32
2022-08-27T01:01:28.524Z,37.28
2022-08-27T01:04:01.289Z,37.26
2022-08-27T01:06:34.577Z,37.53
2022-08-27T01:09:09.077Z,37.66
2022-08-27T01:11:39.038Z,37.57
2022-08-27T01:14:09.801Z,37.57
2022-08-27T01:16:44.703Z,37.22
2022-08-27T01:19:35.715Z,37.26
2022-08-27T01:22:38.071Z,37.22
2022-08-27T01:25:10.989Z,37.23
2022-08-27T01:27:42.045Z,37.21
2022-08-27T01:30:13.660Z,37.26
2022-08-27T01:32:44.707Z,37.12
2022-08-27T01:35:14.526Z,37.36
2022-08-27T01:37:45.368Z,37.58
2022-08-27T01:40:19.156Z,37.59
2022-08-27T01:42:51.543Z,37.51
2022-08-27T01:45:27.737Z,37.48
2022-08-27T01:47:58.410Z,37.48
2022-08-27T01:50:36.293Z,37.50
2022-08-27T01:53:16.456Z,37.47
2022-08-27T01:55:48.502Z,37.61
2022-08-27T01:58:19.515Z,37.78
2022-08-27T02:00:56.085Z,37.90
2022-08-27T02:03:22.930Z,37.79
2022-08-27T02:05:53.199Z,37.89
2022-08-27T02:08:22.660Z,38.00
2022-08-27T02:10:54.125Z,37.97
2022-08-27T02:13:24.871Z,38.05
2022-08-27T02:15:56.838Z,38.07
2022-08-27T02:18:26.526Z,38.22
2022-08-27T02:20:55.828Z,38.39
2022-08-27T02:23:26.717Z,38.57
2022-08-27T02:25:56.454Z,38.65
2022-08-27T02:28:26.542Z,38.86
2022-08-27T02:30:57.100Z,39.04
2022-08-27T02:33:28.116Z,39.23
2022-08-27T02:35:58.750Z,39.27
2022-08-27T02:38:28.185Z,39.43
2022-08-27T02:40:58.795Z,39.55
2022-08-27T02:43:29.579Z,39.87
2022-08-27T02:46:01.235Z,40.01
2022-08-27T02:48:31.831Z,40.12
2022-08-27T02:51:02.663Z,40.26
2022-08-27T02:53:32.953Z,40.28
2022-08-27T02:56:03.402Z,40.33
2022-08-27T02:58:33.570Z,40.36
2022-08-27T03:01:03.083Z,40.39
2022-08-27T03:03:32.480Z,40.48
2022-08-27T03:06:04.429Z,40.43
2022-08-27T03:08:36.490Z,40.59
2022-08-27T03:11:09.670Z,40.69
2022-08-27T03:13:43.309Z,40.60
2022-08-27T03:16:13.338Z,40.86
2022-08-27T03:18:45.859Z,40.86
2022-08-27T03:21:24.197Z,40.92
2022-08-27T03:23:54.373Z,40.79
2022-08-27T03:26:24.343Z,41.15
2022-08-27T03:28:54.127Z,41.19
2022-08-27T03:31:28.388Z,41.09
2022-08-27T03:34:04.177Z,41.09
2022-08-27T03:36:34.909Z,41.06
2022-08-27T03:39:04.283Z,41.40
2022-08-27T03:41:45.441Z,41.59
2022-08-27T03:44:07.413Z,41.81
2022-08-27T03:46:37.753Z,41.58
2022-08-27T03:49:08.397Z,41.65
2022-08-27T03:51:40.804Z,41.50
2022-08-27T03:54:11.253Z,41.46
2022-08-27T03:56:41.428Z,41.47
2022-08-27T03:59:11.068Z,41.58
2022-08-27T04:01:42.589Z,41.63
2022-08-27T04:04:12.977Z,41.68
2022-08-27T04:06:43.086Z,41.70
2022-08-27T04:09:12.543Z,41.67
2022-08-27T04:11:43.296Z,41.66
2022-08-27T04:14:26.238Z,41.76
2022-08-27T04:16:48.179Z,41.85
2022-08-27T04:19:25.071Z,41.85
2022-08-27T04:21:54.783Z,41.87
2022-08-27T04:24:25.499Z,41.78
2022-08-27T04:26:55.501Z,41.77
2022-08-27T04:29:25.865Z,41.68
2022-08-27T04:31:56.312Z,41.77
2022-08-27T04:34:28.098Z,41.81
2022-08-27T04:36:59.283Z,42.19
2022-08-27T04:39:30.136Z,43.48
2022-08-27T04:42:02.875Z,43.95
2022-08-27T04:44:33.190Z,43.10
2022-08-27T04:47:04.322Z,43.09
2022-08-27T04:49:34.194Z,42.53
2022-08-27T04:52:05.328Z,42.50
2022-08-27T04:54:36.108Z,42.39
2022-08-27T04:57:08.047Z,42.28
2022-08-27T04:59:40.433Z,42.16
2022-08-27T05:02:13.542Z,42.08
2022-08-27T05:04:44.324Z,42.18
2022-08-27T05:07:14.230Z,42.31
2022-08-27T05:09:44.709Z,42.40
2022-08-27T05:12:15.083Z,42.52
2022-08-27T05:14:50.091Z,42.42
2022-08-27T05:17:21.909Z,42.32
2022-08-27T05:19:54.372Z,42.81
2022-08-27T05:22:25.000Z,42.72
2022-08-27T05:24:54.949Z,42.63
2022-08-27T05:27:24.987Z,42.56
2022-08-27T05:29:55.882Z,42.63
2022-08-27T05:32:26.716Z,42.50
2022-08-27T05:34:56.798Z,42.52
2022-08-27T05:37:27.249Z,42.53
2022-08-27T05:39:57.618Z,42.70
2022-08-27T05:42:30.631Z,42.83
2022-08-27T05:45:00.637Z,42.98
2022-08-27T05:47:30.764Z,42.95
2022-08-27T05:50:01.589Z,43.01
2022-08-27T05:52:32.159Z,42.83
2022-08-27T05:55:03.223Z,42.87
2022-08-27T05:57:33.827Z,42.67
2022-08-27T06:00:25.655Z,42.63
2022-08-27T06:02:56.888Z,42.82
2022-08-27T06:05:26.773Z,42.90
2022-08-27T06:07:59.638Z,43.08
2022-08-27T06:10:30.285Z,43.00
2022-08-27T06:13:01.110Z,42.93
2022-08-27T06:15:31.644Z,42.89
2022-08-27T06:18:03.163Z,43.04
2022-08-27T06:20:33.748Z,43.06
2022-08-27T06:23:04.280Z,43.29
2022-08-27T06:25:35.428Z,43.21
2022-08-27T06:28:06.692Z,43.41
2022-08-27T06:30:38.447Z,43.29
2022-08-27T06:33:08.956Z,43.08
2022-08-27T06:35:39.129Z,43.02
2022-08-27T06:38:08.620Z,43.02
2022-08-27T06:40:41.925Z,43.37
2022-08-27T06:43:13.854Z,43.17
2022-08-27T06:45:48.730Z,43.08
2022-08-27T06:48:18.972Z,43.33
2022-08-27T06:50:49.785Z,42.89
2022-08-27T06:53:19.413Z,42.88
2022-08-27T06:55:52.503Z,42.86
2022-08-27T06:58:21.759Z,42.51
2022-08-27T07:00:51.699Z,42.43
2022-08-27T07:03:23.358Z,42.41
2022-08-27T07:05:53.110Z,42.36
2022-08-27T07:08:22.889Z,42.07
2022-08-27T07:10:57.831Z,41.86
2022-08-27T07:13:30.063Z,41.79
2022-08-27T07:16:00.246Z,41.73
2022-08-27T07:18:31.033Z,41.74
2022-08-27T07:21:04.245Z,41.72
2022-08-27T07:23:34.859Z,41.65
2022-08-27T07:26:12.786Z,41.89
2022-08-27T07:28:43.443Z,41.67
2022-08-27T07:31:16.654Z,41.50
2022-08-27T07:33:53.142Z,41.47
2022-08-27T07:36:20.448Z,41.42
2022-08-27T07:38:57.019Z,41.26
2022-08-27T07:41:31.148Z,41.47
2022-08-27T07:44:16.174Z,40.93
2022-08-27T07:46:48.990Z,40.60
2022-08-27T07:49:18.973Z,40.10
2022-08-27T07:51:49.552Z,40.35
2022-08-27T07:54:18.955Z,39.93
2022-08-27T07:56:55.071Z,39.93
2022-08-27T07:59:24.275Z,39.76
2022-08-27T08:01:56.196Z,39.33
2022-08-27T08:04:27.546Z,39.35
2022-08-27T08:06:59.519Z,39.05
2022-08-27T08:09:31.439Z,38.96
2022-08-27T08:12:02.154Z,38.97
2022-08-27T08:14:32.572Z,38.93
2022-08-27T08:17:02.567Z,38.95
2022-08-27T08:19:34.006Z,39.15
2022-08-27T08:22:06.696Z,38.46
2022-08-27T08:24:38.341Z,38.27
2022-08-27T08:27:10.756Z,39.06
2022-08-27T08:29:42.722Z,38.55
2022-08-27T08:32:15.457Z,38.22
2022-08-27T08:34:45.804Z,37.93
2022-08-27T08:37:16.127Z,37.57
2022-08-27T08:39:46.931Z,37.47
2022-08-27T08:42:50.901Z,37.42
2022-08-27T08:45:17.141Z,37.22
2022-08-27T08:47:53.401Z,37.22
2022-08-27T08:50:39.376Z,37.32
2022-08-27T08:53:31.632Z,37.11
2022-08-27T08:56:05.516Z,37.19
2022-08-27T08:58:55.419Z,36.97
2022-08-27T09:01:25.606Z,36.76
2022-08-27T09:04:00.384Z,36.06
2022-08-27T09:07:06.031Z,35.69
2022-08-27T09:10:07.796Z,35.27
2022-08-27T09:12:39.539Z,34.71
2022-08-27T09:15:23.278Z,34.29
2022-08-27T09:17:54.200Z,34.24
2022-08-27T09:20:25.853Z,33.97
2022-08-27T09:23:12.142Z,33.88
2022-08-27T09:25:43.186Z,33.99
2022-08-27T09:28:34.873Z,33.32
2022-08-27T09:31:09.956Z,33.10
2022-08-27T09:33:55.060Z,32.84
2022-08-27T09:36:15.337Z,32.58
2022-08-27T09:39:01.506Z,32.40
2022-08-27T09:41:35.008Z,32.01
2022-08-27T09:44:11.717Z,32.37
2022-08-27T09:46:54.728Z,32.51
2022-08-27T09:49:26.699Z,32.26
2022-08-27T09:51:57.400Z,32.26
2022-08-27T09:54:43.811Z,31.97
2022-08-27T09:57:15.450Z,31.73
2022-08-27T09:59:53.688Z,30.66
2022-08-27T10:02:25.509Z,30.45
2022-08-27T10:04:58.830Z,30.36
2022-08-27T10:07:56.074Z,30.02
2022-08-27T10:10:40.552Z,29.51
2022-08-27T10:13:29.830Z,29.02
2022-08-27T10:16:34.891Z,27.87
2022-08-27T10:19:27.555Z,28.26
2022-08-27T10:22:20.059Z,28.71
2022-08-27T10:25:33.830Z,27.93
2022-08-27T10:28:34.071Z,27.64
2022-08-27T10:31:14.686Z,27.53
2022-08-27T10:34:22.887Z,27.77
2022-08-27T10:37:01.245Z,27.73
2022-08-27T10:40:19.503Z,27.59
2022-08-27T10:43:02.773Z,27.25
2022-08-27T10:46:01.354Z,27.35
2022-08-27T10:48:51.600Z,27.40
2022-08-27T10:51:28.551Z,27.62
2022-08-27T10:54:46.167Z,27.72
2022-08-27T10:57:56.505Z,27.90
2022-08-27T11:00:21.279Z,27.82
2022-08-27T11:03:24.716Z,28.08
2022-08-27T11:05:54.308Z,28.15
2022-08-27T11:08:34.704Z,28.30
2022-08-27T11:12:03.166Z,28.77
2022-08-27T11:13:54.083Z,28.32
2022-08-27T11:16:29.877Z,28.32
2022-08-27T11:19:24.250Z,28.40
2022-08-27T11:22:27.623Z,28.40
2022-08-27T11:25:52.668Z,28.02
2022-08-27T11:28:30.020Z,28.02
2022-08-27T11:31:19.719Z,28.01
2022-08-27T11:34:15.470Z,27.70
2022-08-27T11:37:19.360Z,27.34
2022-08-27T11:40:31.802Z,27.02
2022-08-27T11:43:07.780Z,26.88
2022-08-27T11:45:38.477Z,26.56
2022-08-27T11:48:32.915Z,26.27
2022-08-27T11:51:19.035Z,26.40
2022-08-27T11:54:01.553Z,26.03
2022-08-27T11:56:37.657Z,26.03
2022-08-27T11:59:31.319Z,26.22
2022-08-27T12:02:27.763Z,26.59
2022-08-27T12:05:09.521Z,25.70
2022-08-27T12:07:43.820Z,25.70
2022-08-27T12:10:24.463Z,26.02
2022-08-27T12:13:21.348Z,26.55
2022-08-27T12:16:24.636Z,26.93
2022-08-27T12:19:23.733Z,26.95
2022-08-27T12:22:14.135Z,27.27
2022-08-27T12:24:55.762Z,26.56
2022-08-27T12:27:32.682Z,26.36
2022-08-27T12:30:10.242Z,25.92
2022-08-27T12:32:44.554Z,26.26
2022-08-27T12:35:24.121Z,26.26
2022-08-27T12:37:57.811Z,26.13
2022-08-27T12:40:30.961Z,25.46
2022-08-27T12:43:16.641Z,25.55
2022-08-27T12:45:52.780Z,24.96
2022-08-27T12:48:30.623Z,24.96
2022-08-27T12:51:06.870Z,24.19
2022-08-27T12:53:59.152Z,23.89
2022-08-27T12:56:54.626Z,22.57
2022-08-27T12:59:38.861Z,22.57
2022-08-27T13:02:25.610Z,22.15
2022-08-27T13:04:55.424Z,22.20
2022-08-27T13:07:34.930Z,22.24
2022-08-27T13:10:18.195Z,21.40
2022-08-27T13:12:49.126Z,22.12
2022-08-27T13:15:21.500Z,22.12
2022-08-27T13:17:50.580Z,22.11
2022-08-27T13:20:23.991Z,22.14
2022-08-27T13:22:53.640Z,22.06
2022-08-27T13:25:33.215Z,22.30
2022-08-27T13:28:15.902Z,21.53
2022-08-27T13:30:48.569Z,21.42
2022-08-27T13:33:29.516Z,21.53
2022-08-27T13:36:00.492Z,21.42
2022-08-27T13:38:33.266Z,21.51
2022-08-27T13:41:27.062Z,22.67
2022-08-27T13:43:59.346Z,22.06
2022-08-27T13:46:30.372Z,22.12
2022-08-27T13:49:00.574Z,22.14
2022-08-27T13:51:32.527Z,22.23
2022-08-27T13:54:17.683Z,22.25
2022-08-27T13:56:55.510Z,22.23
2022-08-27T13:59:27.782Z,22.06
2022-08-27T14:02:01.451Z,21.38
2022-08-27T14:04:53.028Z,21.94
2022-08-27T14:07:27.425Z,21.70
2022-08-27T14:10:03.527Z,21.71
2022-08-27T14:12:38.003Z,21.67
2022-08-27T14:15:35.348Z,21.88
2022-08-27T14:18:07.868Z,21.86
2022-08-27T14:20:37.815Z,22.35
2022-08-27T14:23:08.402Z,22.12
2022-08-27T14:25:39.701Z,22.92
2022-08-27T14:28:08.985Z,22.67
2022-08-27T14:30:38.337Z,22.67
2022-08-27T14:33:07.695Z,23.10
2022-08-27T14:35:39.502Z,24.15
2022-08-27T14:38:17.666Z,24.15
2022-08-27T14:40:48.609Z,24.16
2022-08-27T14:43:18.626Z,24.16
2022-08-27T14:45:49.174Z,24.41
2022-08-27T14:48:28.935Z,24.77
2022-08-27T14:51:02.197Z,25.01
2022-08-27T14:53:32.356Z,25.01
2022-08-27T14:56:02.908Z,25.28
2022-08-27T14:58:32.920Z,25.62
2022-08-27T15:01:03.598Z,25.63
2022-08-27T15:03:34.917Z,25.92
2022-08-27T15:06:07.092Z,25.81
2022-08-27T15:08:36.592Z,26.19
2022-08-27T15:11:06.070Z,26.26
2022-08-27T15:13:38.468Z,26.26
2022-08-27T15:16:08.822Z,26.26
2022-08-27T15:18:38.962Z,26.34
2022-08-27T15:21:10.114Z,26.34
2022-08-27T15:23:40.560Z,26.37
2022-08-27T15:26:11.097Z,26.75
2022-08-27T15:28:43.222Z,26.70
2022-08-27T15:31:14.581Z,26.70
2022-08-27T15:33:45.333Z,26.92
2022-08-27T15:36:15.027Z,27.39
2022-08-27T15:38:45.960Z,27.74
2022-08-27T15:41:16.688Z,27.62
2022-08-27T15:43:46.658Z,28.06
2022-08-27T15:46:16.672Z,27.76
2022-08-27T15:48:47.138Z,28.24
2022-08-27T15:51:17.524Z,28.05
2022-08-27T15:53:47.185Z,28.38
2022-08-27T15:56:19.824Z,28.33
2022-08-27T15:58:49.443Z,28.66
2022-08-27T16:01:24.261Z,28.75
2022-08-27T16:03:55.209Z,28.96
2022-08-27T16:06:25.344Z,29.41
2022-08-27T16:08:55.564Z,29.50
2022-08-27T16:11:25.619Z,29.88
2022-08-27T16:13:55.719Z,29.90
2022-08-27T16:16:28.363Z,30.22
2022-08-27T16:19:02.484Z,30.44
2022-08-27T16:21:34.784Z,30.62
2022-08-27T16:24:04.812Z,30.83
2022-08-27T16:26:34.551Z,30.92
2022-08-27T16:29:05.336Z,31.11
2022-08-27T16:31:36.934Z,31.43
2022-08-27T16:34:15.957Z,31.59
2022-08-27T16:36:45.641Z,31.93
2022-08-27T16:39:16.678Z,32.23
2022-08-27T16:41:46.934Z,32.27
2022-08-27T16:44:17.208Z,32.63
2022-08-27T16:46:47.499Z,32.84
2022-08-27T16:49:36.154Z,33.15
2022-08-27T16:52:08.019Z,33.28
2022-08-27T16:54:38.527Z,33.56
2022-08-27T16:57:08.696Z,33.77
2022-08-27T16:59:39.837Z,33.97
2022-08-27T17:02:14.428Z,34.28
2022-08-27T17:04:49.262Z,34.60
2022-08-27T17:07:19.781Z,34.53
2022-08-27T17:09:52.229Z,34.71
2022-08-27T17:12:24.288Z,35.00
2022-08-27T17:14:55.719Z,35.23
2022-08-27T17:17:27.751Z,35.29
2022-08-27T17:19:57.562Z,35.55
2022-08-27T17:22:27.627Z,36.02
2022-08-27T17:24:58.151Z,36.23
2022-08-27T17:27:28.645Z,36.20
2022-08-27T17:29:58.960Z,36.28
2022-08-27T17:32:28.997Z,36.35
2022-08-27T17:35:05.110Z,36.46
2022-08-27T17:37:32.998Z,36.37
2022-08-27T17:40:03.671Z,36.56
2022-08-27T17:42:34.049Z,36.62
2022-08-27T17:45:04.844Z,36.70
2022-08-27T17:47:35.703Z,37.02
2022-08-27T17:50:06.174Z,36.95
2022-08-27T17:52:38.839Z,37.04
2022-08-27T17:55:08.779Z,37.06
2022-08-27T17:57:41.091Z,37.26
2022-08-27T18:00:13.032Z,37.29
2022-08-27T18:02:48.619Z,37.63
2022-08-27T18:05:19.760Z,37.86
2022-08-27T18:07:50.683Z,37.98
2022-08-27T18:10:23.576Z,38.25
2022-08-27T18:12:55.351Z,38.34
2022-08-27T18:15:27.346Z,38.50
2022-08-27T18:17:58.484Z,38.65
2022-08-27T18:20:28.611Z,38.90
2022-08-27T18:22:58.119Z,39.05
2022-08-27T18:25:33.841Z,39.07
2022-08-27T18:28:04.117Z,39.11
2022-08-27T18:30:33.590Z,39.38
2022-08-27T18:33:04.898Z,39.53
2022-08-27T18:35:35.027Z,39.91
2022-08-27T18:38:06.060Z,39.97
2022-08-27T18:40:43.617Z,40.14
2022-08-27T18:43:14.592Z,40.09
2022-08-27T18:45:44.575Z,40.09
2022-08-27T18:48:17.346Z,40.12
2022-08-27T18:50:50.206Z,40.33
2022-08-27T18:53:22.518Z,40.62
2022-08-27T18:55:52.506Z,40.79
2022-08-27T18:58:21.857Z,40.96
2022-08-27T19:00:57.105Z,41.19
2022-08-27T19:03:39.874Z,41.41
2022-08-27T19:06:10.134Z,41.55
2022-08-27T19:08:40.090Z,41.82
2022-08-27T19:11:10.598Z,41.64
2022-08-27T19:13:40.629Z,41.75
2022-08-27T19:16:14.011Z,41.89
2022-08-27T19:18:43.169Z,41.97
2022-08-27T19:21:13.498Z,41.95
2022-08-27T19:23:44.173Z,42.07
2022-08-27T19:26:19.041Z,41.92
2022-08-27T19:28:48.500Z,41.91
2022-08-27T19:31:18.430Z,41.60
2022-08-27T19:33:48.374Z,41.98
2022-08-27T19:36:19.340Z,42.19
2022-08-27T19:38:50.712Z,42.23
2022-08-27T19:41:27.209Z,41.93
2022-08-27T19:43:53.552Z,41.99
2022-08-27T19:46:22.768Z,42.11
2022-08-27T19:48:52.933Z,42.31
2022-08-27T19:51:22.984Z,42.26
2022-08-27T19:53:52.830Z,42.28
2022-08-27T19:56:23.438Z,42.25
2022-08-27T19:58:56.818Z,42.71
2022-08-27T20:01:25.068Z,42.91
2022-08-27T20:03:54.101Z,43.13
2022-08-27T20:06:26.752Z,43.34
2022-08-27T20:08:56.524Z,43.52
2022-08-27T20:11:26.944Z,43.66
2022-08-27T20:13:58.378Z,43.74
2022-08-27T20:16:28.824Z,43.90
2022-08-27T20:19:01.318Z,44.09
2022-08-27T20:21:30.508Z,44.33
2022-08-27T20:23:59.705Z,44.61
2022-08-27T20:26:32.725Z,44.67
2022-08-27T20:29:02.698Z,44.76
2022-08-27T20:31:32.588Z,44.99
2022-08-27T20:34:04.359Z,45.13
2022-08-27T20:36:34.388Z,45.21
2022-08-27T20:39:04.934Z,45.33
2022-08-27T20:41:35.843Z,45.48
2022-08-27T20:44:06.443Z,45.60
2022-08-27T20:46:35.363Z,45.87
2022-08-27T20:49:07.404Z,46.19
2022-08-27T20:52:02.049Z,46.32
2022-08-27T20:54:07.748Z,46.64
2022-08-27T20:56:36.913Z,46.77
2022-08-27T20:59:25.773Z,46.90
2022-08-27T21:01:55.056Z,46.94
2022-08-27T21:04:25.308Z,47.41
2022-08-27T21:06:56.163Z,47.50
2022-08-27T21:09:27.518Z,47.52
2022-08-27T21:11:57.568Z,47.63
2022-08-27T21:14:26.695Z,47.76
2022-08-27T21:16:59.358Z,47.91
2022-08-27T21:19:28.844Z,48.07
2022-08-27T21:22:01.018Z,48.13
2022-08-27T21:24:31.143Z,48.12
2022-08-27T21:27:01.013Z,48.11
2022-08-27T21:29:31.534Z,48.34
2022-08-27T21:32:00.337Z,48.48
2022-08-27T21:34:30.991Z,48.54
2022-08-27T21:36:59.899Z,48.68
2022-08-27T21:39:28.708Z,49.08
2022-08-27T21:42:00.635Z,49.14
2022-08-27T21:44:30.824Z,49.14
2022-08-27T21:47:01.507Z,49.25
2022-08-27T21:49:32.354Z,49.27
2022-08-27T21:52:03.403Z,49.43
2022-08-27T21:54:37.273Z,49.43
2022-08-27T21:57:07.994Z,49.43
2022-08-27T21:59:44.544Z,49.38
2022-08-27T22:02:38.331Z,49.62
2022-08-27T22:04:46.983Z,49.55
2022-08-27T22:07:18.333Z,49.44
2022-08-27T22:09:48.473Z,49.56
2022-08-27T22:12:19.258Z,49.63
2022-08-27T22:14:48.803Z,49.86
2022-08-27T22:17:19.919Z,50.04
2022-08-27T22:19:49.354Z,50.26
2022-08-27T22:22:19.459Z,50.34
2022-08-27T22:24:50.450Z,50.39
2022-08-27T22:27:20.703Z,50.25
2022-08-27T22:29:50.684Z,50.16
2022-08-27T22:32:20.993Z,50.03
2022-08-27T22:34:50.229Z,49.95
2022-08-27T22:37:20.940Z,50.00
2022-08-27T22:39:50.555Z,49.93
2022-08-27T22:42:19.915Z,50.36
2022-08-27T22:44:49.455Z,50.46
2022-08-27T22:47:20.550Z,50.53
2022-08-27T22:49:52.916Z,50.42
2022-08-27T22:52:23.213Z,50.49
2022-08-27T22:54:54.850Z,50.39
2022-08-27T22:57:25.080Z,50.40
2022-08-27T22:59:54.935Z,50.39
2022-08-27T23:02:23.870Z,50.32
2022-08-27T23:04:55.545Z,50.27
2022-08-27T23:07:24.556Z,50.21
2022-08-27T23:09:53.993Z,49.96
2022-08-27T23:12:24.270Z,49.55
2022-08-27T23:14:54.275Z,49.45
2022-08-27T23:17:23.980Z,49.44
2022-08-27T23:19:56.080Z,48.44
2022-08-27T23:22:26.675Z,46.64
2022-08-27T23:25:13.750Z,45.78
2022-08-27T23:27:42.935Z,45.47
2022-08-27T23:30:13.534Z,45.25
2022-08-27T23:32:46.367Z,45.00
2022-08-27T23:35:15.240Z,44.73
2022-08-27T23:37:45.925Z,44.81
2022-08-27T23:40:15.298Z,45.03
2022-08-27T23:42:45.276Z,44.58
2022-08-27T23:45:18.462Z,44.54
2022-08-27T23:47:49.363Z,44.39
2022-08-27T23:50:19.390Z,45.44
2022-08-27T23:52:49.091Z,45.78
2022-08-27T23:55:18.586Z,47.15
2022-08-27T23:57:49.200Z,46.60
